Time;durP1;ratioP1;P1;durP2;ratioP2;P2;SDS_P1;SDS_P2;PMS_P1;PMS_P2;Temp;Humidity;BMP_temperature;BMP_pressure;BME280_temperature;BME280_humidity;BME280_pressure;Samples;Min_cycle;Max_cycle;Signal;HPM_P1;HPM_P2
2021/03/19 00:00:04;;;;;;;1.80;1.50;;;22.40;49.60;;;;;;5033651;28;20476;-67
2021/03/19 00:37:54;;;;;;;1.50;1.27;;;22.00;50.10;;;;;;5031958;28;20435;-86
2021/03/19 00:40:20;;;;;;;1.30;1.00;;;22.00;50.70;;;;;;5030605;28;20438;-84
2021/03/19 00:42:46;;;;;;;2.17;1.40;;;22.00;50.20;;;;;;5031652;28;20184;-85
2021/03/19 00:45:14;;;;;;;1.50;1.20;;;22.00;50.80;;;;;;5031760;28;20447;-85
2021/03/19 00:47:40;;;;;;;1.67;1.50;;;21.70;50.00;;;;;;5032018;28;20420;-85
2021/03/19 00:50:13;;;;;;;2.90;1.70;;;22.00;50.80;;;;;;5030731;28;20411;-85
2021/03/19 00:52:40;;;;;;;1.50;1.30;;;22.00;50.50;;;;;;5032645;28;20197;-85
2021/03/19 00:55:12;;;;;;;1.70;1.20;;;21.90;50.60;;;;;;5031058;28;20450;-85
2021/03/19 00:57:40;;;;;;;2.03;1.33;;;22.00;50.40;;;;;;5032472;28;20541;-85
2021/03/19 01:00:09;;;;;;;1.93;1.30;;;21.90;50.40;;;;;;5031101;28;20415;-85
2021/03/19 01:02:35;;;;;;;2.07;1.57;;;22.00;50.30;;;;;;5032255;28;20443;-85
2021/03/19 01:05:00;;;;;;;2.10;1.50;;;22.00;51.20;;;;;;5031077;28;20465;-85
2021/03/19 01:07:26;;;;;;;1.63;1.43;;;22.00;50.90;;;;;;5031133;28;20231;-84
2021/03/19 01:09:52;;;;;;;1.70;1.30;;;22.00;51.20;;;;;;5030430;28;20510;-84
2021/03/19 01:12:18;;;;;;;1.90;1.33;;;21.90;50.60;;;;;;5030693;28;20199;-84
2021/03/19 01:14:44;;;;;;;3.00;1.30;;;21.90;50.80;;;;;;5030340;28;20183;-84
2021/03/19 01:17:13;;;;;;;1.73;1.37;;;21.90;51.10;;;;;;5030006;28;20255;-85
2021/03/19 01:19:38;;;;;;;2.30;1.10;;;21.90;51.10;;;;;;5031899;28;20207;-84
2021/03/19 01:22:04;;;;;;;1.63;1.37;;;21.90;50.80;;;;;;5030214;28;20458;-84
2021/03/19 01:24:30;;;;;;;1.80;1.23;;;21.90;51.00;;;;;;5030573;28;20177;-85
2021/03/19 01:26:56;;;;;;;1.60;1.33;;;21.80;50.40;;;;;;5029356;28;20578;-84
2021/03/19 01:29:22;;;;;;;1.90;1.53;;;21.80;51.40;;;;;;5029228;28;20400;-84
2021/03/19 01:31:48;;;;;;;2.20;1.60;;;22.10;51.10;;;;;;5028186;28;20199;-85
2021/03/19 01:34:14;;;;;;;2.00;1.33;;;21.90;51.20;;;;;;5029751;28;20451;-85
2021/03/19 01:36:43;;;;;;;2.50;1.60;;;21.90;50.90;;;;;;5029465;28;20666;-85
2021/03/19 01:39:09;;;;;;;1.20;1.10;;;21.80;50.10;;;;;;5030260;28;20423;-85
2021/03/19 01:41:38;;;;;;;3.10;1.30;;;21.90;50.80;;;;;;5033586;28;20513;-85
2021/03/19 01:44:48;;;;;;;1.50;1.20;;;21.80;50.60;;;;;;5031210;28;20173;-85
2021/03/19 01:47:51;;;;;;;1.40;1.20;;;21.90;50.20;;;;;;5031769;28;20418;-85
2021/03/19 01:50:54;;;;;;;2.50;1.17;;;21.80;50.20;;;;;;5030570;28;20490;-85
2021/03/19 01:54:00;;;;;;;1.77;1.30;;;21.80;50.20;;;;;;5013984;28;20419;-85
2021/03/19 01:57:03;;;;;;;1.60;1.30;;;21.80;50.30;;;;;;5031153;28;20419;-85
2021/03/19 02:00:08;;;;;;;2.70;1.30;;;21.80;50.30;;;;;;5029125;28;20434;-85
2021/03/19 02:03:10;;;;;;;1.30;1.20;;;21.70;50.30;;;;;;5028639;28;20642;-85
2021/03/19 02:06:31;;;;;;;1.37;1.27;;;21.70;50.30;;;;;;5029113;28;20450;-85
2021/03/19 02:09:34;;;;;;;1.57;1.23;;;21.70;50.30;;;;;;4973966;28;20413;-85
2021/03/19 02:12:37;;;;;;;1.53;1.30;;;21.20;50.00;;;;;;5029091;28;20460;-84
2021/03/19 02:15:44;;;;;;;1.10;0.90;;;21.60;50.30;;;;;;5012435;28;20438;-85
2021/03/19 02:18:47;;;;;;;1.80;1.30;;;21.70;50.40;;;;;;5029289;28;20419;-85
2021/03/19 02:21:50;;;;;;;1.13;1.00;;;21.70;50.40;;;;;;5011998;28;20478;-85
2021/03/19 02:24:53;;;;;;;1.30;1.20;;;21.70;50.40;;;;;;5029957;28;20475;-85
2021/03/19 02:27:57;;;;;;;2.17;1.00;;;22.00;50.60;;;;;;5029898;28;20419;-85
2021/03/19 02:31:00;;;;;;;1.87;1.30;;;21.70;50.40;;;;;;5031242;28;20435;-85
2021/03/19 02:33:27;;;;;;;2.03;1.27;;;21.60;50.30;;;;;;5029554;28;20511;-85
2021/03/19 02:35:58;;;;;;;1.70;1.27;;;21.60;52.10;;;;;;5029415;28;20430;-86
2021/03/19 02:38:25;;;;;;;1.50;1.40;;;21.50;50.50;;;;;;5029405;28;20410;-85
2021/03/19 02:40:54;;;;;;;1.40;1.10;;;21.60;50.60;;;;;;5028756;28;20503;-85
2021/03/19 02:43:22;;;;;;;1.80;1.43;;;21.70;50.90;;;;;;5029828;28;20422;-86
2021/03/19 02:45:48;;;;;;;1.40;1.10;;;21.60;50.80;;;;;;5030596;28;20439;-86
2021/03/19 02:48:16;;;;;;;1.40;1.20;;;21.70;51.20;;;;;;5030073;28;20416;-85
2021/03/19 02:50:43;;;;;;;2.00;1.47;;;21.70;50.70;;;;;;5029128;28;20415;-85
2021/03/19 02:53:20;;;;;;;1.37;1.13;;;21.60;50.70;;;;;;5028624;28;20479;-85
2021/03/19 02:55:47;;;;;;;2.10;1.33;;;21.70;50.60;;;;;;5030159;28;20398;-85
2021/03/19 02:58:14;;;;;;;1.27;1.10;;;21.50;50.70;;;;;;5028677;28;20416;-84
2021/03/19 03:00:40;;;;;;;1.30;1.10;;;21.60;50.80;;;;;;5029470;28;20462;-84
2021/03/19 03:03:06;;;;;;;1.70;1.20;;;21.60;51.00;;;;;;5015102;28;20420;-85
2021/03/19 03:05:33;;;;;;;1.70;1.10;;;21.60;51.20;;;;;;4995647;28;20416;-85
2021/03/19 03:08:02;;;;;;;1.33;1.00;;;21.30;50.90;;;;;;5008980;28;20420;-85
2021/03/19 03:10:30;;;;;;;2.07;1.30;;;21.60;50.30;;;;;;5011546;28;20415;-84
2021/03/19 03:12:56;;;;;;;1.80;1.30;;;21.60;50.90;;;;;;5009552;28;20447;-85
2021/03/19 03:15:22;;;;;;;1.23;1.10;;;21.70;51.50;;;;;;5013994;28;20416;-85
2021/03/19 03:17:49;;;;;;;1.93;1.10;;;21.60;51.70;;;;;;5016246;28;20450;-85
2021/03/19 03:20:33;;;;;;;1.40;1.10;;;21.60;50.60;;;;;;5015618;28;20427;-85
2021/03/19 03:22:59;;;;;;;1.53;1.00;;;21.60;50.30;;;;;;5012958;28;20411;-86
2021/03/19 03:25:25;;;;;;;1.47;1.00;;;21.60;51.60;;;;;;5013744;28;20401;-86
2021/03/19 03:27:53;;;;;;;1.17;0.93;;;21.60;50.70;;;;;;5012558;28;20423;-86
2021/03/19 03:30:23;;;;;;;2.27;1.23;;;21.60;50.60;;;;;;5012179;28;20427;-85
2021/03/19 03:32:52;;;;;;;1.20;0.90;;;21.60;52.10;;;;;;5013294;28;20428;-85
2021/03/19 03:35:21;;;;;;;1.90;1.33;;;21.30;52.00;;;;;;4996085;28;20424;-85
2021/03/19 03:37:47;;;;;;;1.63;1.30;;;22.10;50.90;;;;;;5012388;28;20412;-85
2021/03/19 03:40:17;;;;;;;1.60;1.30;;;21.60;51.40;;;;;;5012782;28;20463;-85
2021/03/19 03:42:46;;;;;;;1.40;0.90;;;21.60;50.50;;;;;;5029720;28;20518;-85
2021/03/19 03:45:13;;;;;;;1.67;1.10;;;21.30;51.40;;;;;;5029854;28;20436;-85
2021/03/19 03:47:39;;;;;;;1.80;1.17;;;21.40;50.50;;;;;;5031725;28;20426;-85
2021/03/19 03:50:10;;;;;;;3.20;1.00;;;21.60;51.40;;;;;;5032804;28;20419;-84
2021/03/19 03:52:36;;;;;;;1.77;1.10;;;21.60;50.70;;;;;;5032200;28;20177;-84
2021/03/19 03:55:05;;;;;;;1.40;0.90;;;21.60;50.90;;;;;;5031606;28;20474;-85
2021/03/19 03:57:31;;;;;;;1.40;1.00;;;21.60;50.60;;;;;;5032470;28;20235;-85
2021/03/19 03:59:58;;;;;;;1.00;0.83;;;21.60;50.80;;;;;;5032980;28;20420;-85
2021/03/19 04:02:27;;;;;;;1.40;1.20;;;21.50;50.30;;;;;;5031580;28;20493;-85
2021/03/19 04:04:54;;;;;;;1.60;1.50;;;21.50;50.90;;;;;;5031412;28;20423;-86
2021/03/19 04:07:21;;;;;;;1.83;1.40;;;21.50;50.60;;;;;;5031098;28;20481;-85
2021/03/19 04:09:48;;;;;;;1.57;1.20;;;21.50;50.50;;;;;;5030546;28;20430;-85
2021/03/19 04:12:14;;;;;;;1.30;1.00;;;21.50;50.40;;;;;;5031928;28;20526;-85
2021/03/19 04:14:42;;;;;;;1.30;0.87;;;21.50;50.90;;;;;;5030783;28;20419;-85
2021/03/19 04:17:10;;;;;;;1.20;0.90;;;21.50;50.30;;;;;;5029297;28;20454;-85
2021/03/19 04:19:38;;;;;;;1.60;0.97;;;21.20;50.20;;;;;;5030066;28;20426;-85
2021/03/19 04:22:04;;;;;;;1.30;1.10;;;21.50;51.50;;;;;;5031609;28;20458;-85
2021/03/19 04:24:33;;;;;;;2.00;1.20;;;21.30;50.80;;;;;;5029194;28;20471;-86
2021/03/19 04:26:59;;;;;;;1.23;0.90;;;21.50;51.30;;;;;;5033235;28;20410;-85
2021/03/19 04:29:26;;;;;;;1.57;1.20;;;21.50;51.30;;;;;;5033747;28;20416;-85
2021/03/19 04:31:52;;;;;;;1.53;0.90;;;21.50;50.70;;;;;;5031765;28;20434;-85
2021/03/19 04:34:18;;;;;;;1.00;0.90;;;21.50;52.10;;;;;;5033399;28;20438;-84
2021/03/19 04:36:48;;;;;;;1.40;1.03;;;21.50;51.40;;;;;;5032489;28;20462;-84
2021/03/19 04:39:29;;;;;;;1.10;0.93;;;21.50;50.60;;;;;;5032076;28;20458;-84
2021/03/19 04:41:59;;;;;;;1.10;0.90;;;21.50;51.10;;;;;;5033478;28;20470;-84
2021/03/19 04:44:29;;;;;;;1.90;1.40;;;21.50;50.90;;;;;;5030841;28;20434;-84
2021/03/19 04:46:55;;;;;;;1.50;1.20;;;21.50;50.60;;;;;;5032318;28;20487;-84
2021/03/19 04:49:24;;;;;;;1.50;1.00;;;21.50;51.30;;;;;;5032088;28;20415;-85
2021/03/19 04:51:50;;;;;;;1.37;1.17;;;21.50;51.30;;;;;;5030049;28;20431;-85
2021/03/19 04:54:18;;;;;;;1.30;1.00;;;21.50;51.50;;;;;;5013806;28;20430;-84
2021/03/19 04:56:51;;;;;;;2.23;1.10;;;21.40;51.60;;;;;;5032542;28;20485;-85
2021/03/19 04:59:18;;;;;;;2.40;1.50;;;21.10;50.40;;;;;;5031559;28;20447;-85
2021/03/19 05:01:55;;;;;;;1.63;1.20;;;21.40;51.20;;;;;;5030018;28;20462;-85
2021/03/19 05:04:22;;;;;;;2.63;1.00;;;21.40;50.40;;;;;;5030207;28;20412;-86
2021/03/19 05:06:50;;;;;;;2.20;1.10;;;21.40;50.90;;;;;;5029656;28;20427;-86
2021/03/19 05:09:17;;;;;;;1.30;1.00;;;21.40;51.10;;;;;;5029883;28;20415;-85
2021/03/19 05:11:43;;;;;;;1.97;1.30;;;21.40;50.70;;;;;;5029881;28;20431;-85
2021/03/19 05:14:09;;;;;;;1.40;0.90;;;21.40;50.80;;;;;;5030886;28;20438;-84
2021/03/19 05:16:35;;;;;;;1.40;1.00;;;21.40;51.80;;;;;;5029993;28;20424;-85
2021/03/19 05:19:01;;;;;;;2.13;0.90;;;21.40;51.60;;;;;;5029769;28;20180;-85
2021/03/19 05:21:27;;;;;;;1.10;0.80;;;;;;;;;;5028845;28;20557;-85
2021/03/19 05:23:53;;;;;;;1.70;1.30;;;21.40;50.00;;;;;;5030074;28;20426;-85
2021/03/19 05:26:18;;;;;;;1.03;0.87;;;21.30;50.70;;;;;;5028646;28;20905;-85
2021/03/19 05:28:44;;;;;;;1.20;1.00;;;21.40;51.60;;;;;;5029932;28;20182;-85
2021/03/19 05:31:10;;;;;;;1.23;1.07;;;21.40;51.30;;;;;;5028620;28;20187;-86
2021/03/19 05:33:49;;;;;;;1.10;0.87;;;21.40;51.20;;;;;;5030093;28;20431;-86
2021/03/19 05:36:21;;;;;;;1.07;0.97;;;21.40;50.40;;;;;;5029710;28;20239;-85
2021/03/19 05:38:47;;;;;;;1.63;1.10;;;21.40;50.70;;;;;;5029244;28;20423;-85
2021/03/19 05:41:14;;;;;;;1.00;0.90;;;21.40;51.10;;;;;;5030177;28;20538;-85
2021/03/19 05:44:04;;;;;;;1.30;1.10;;;21.40;50.60;;;;;;5029829;28;20442;-85
2021/03/19 05:46:35;;;;;;;1.27;1.00;;;21.40;50.20;;;;;;5028335;28;20561;-85
2021/03/19 05:49:12;;;;;;;1.70;1.13;;;21.40;50.40;;;;;;5030318;28;20392;-85
2021/03/19 05:51:39;;;;;;;1.37;0.90;;;21.50;50.30;;;;;;5031307;28;20924;-85
2021/03/19 05:54:23;;;;;;;1.43;1.10;;;21.50;50.80;;;;;;5030050;28;20423;-85
2021/03/19 05:57:04;;;;;;;1.27;1.07;;;21.50;50.10;;;;;;5031408;28;20419;-85
2021/03/19 05:59:34;;;;;;;1.83;1.00;;;21.50;50.10;;;;;;5031648;28;20406;-85
2021/03/19 06:02:01;;;;;;;1.47;0.90;;;21.50;51.20;;;;;;5030232;28;20466;-86
2021/03/19 06:04:30;;;;;;;1.63;1.20;;;21.60;50.30;;;;;;5031347;28;20422;-85
2021/03/19 06:07:03;;;;;;;1.20;0.97;;;21.50;50.10;;;;;;5029550;28;20412;-85
2021/03/19 06:09:39;;;;;;;1.23;1.10;;;21.60;50.10;;;;;;5028005;28;20411;-85
2021/03/19 06:12:14;;;;;;;1.40;1.00;;;21.60;50.20;;;;;;5027872;28;20423;-84
2021/03/19 06:14:55;;;;;;;2.23;0.90;;;21.60;51.00;;;;;;5026816;28;20410;-86
2021/03/19 06:17:33;;;;;;;1.53;1.10;;;21.60;50.50;;;;;;5026834;28;20434;-85
2021/03/19 06:20:02;;;;;;;1.33;1.00;;;21.60;50.40;;;;;;5026453;28;20416;-87
2021/03/19 06:22:38;;;;;;;1.60;1.20;;;21.60;52.10;;;;;;5025115;28;20526;-85
2021/03/19 06:25:18;;;;;;;1.50;0.87;;;21.60;50.70;;;;;;5026394;28;20411;-86
2021/03/19 06:27:52;;;;;;;1.33;1.23;;;21.60;50.50;;;;;;5027054;28;20459;-86
2021/03/19 06:30:24;;;;;;;1.13;0.83;;;21.60;49.90;;;;;;5025458;28;20479;-86
2021/03/19 06:33:24;;;;;;;1.57;1.00;;;21.60;50.40;;;;;;5025152;28;20412;-86
2021/03/19 06:36:16;;;;;;;1.13;0.93;;;21.60;49.90;;;;;;5025474;28;20435;-85
2021/03/19 06:38:44;;;;;;;3.10;1.00;;;21.60;50.00;;;;;;5026182;28;20408;-86
2021/03/19 06:41:36;;;;;;;1.50;1.13;;;21.60;50.50;;;;;;5026007;28;20462;-86
2021/03/19 06:44:23;;;;;;;1.97;1.10;;;21.60;50.00;;;;;;5023173;28;20384;-88
2021/03/19 06:46:58;;;;;;;1.87;1.00;;;21.60;49.90;;;;;;5020872;28;20473;-89
2021/03/19 06:49:28;;;;;;;1.63;1.10;;;21.60;50.30;;;;;;5025174;28;20777;-88
2021/03/19 06:52:14;;;;;;;1.40;1.00;;;21.60;51.20;;;;;;5024774;28;20787;-88
2021/03/19 06:54:50;;;;;;;1.67;1.07;;;21.30;49.80;;;;;;5025603;28;20473;-86
2021/03/19 06:57:19;;;;;;;1.23;1.13;;;21.70;50.20;;;;;;5028914;28;20951;-88
2021/03/19 06:59:49;;;;;;;1.27;1.10;;;21.70;50.90;;;;;;5027265;28;20426;-87
2021/03/19 07:03:02;;;;;;;2.13;1.00;;;21.70;51.10;;;;;;5027123;28;20467;-85
2021/03/19 07:05:52;;;;;;;1.07;0.80;;;21.70;49.90;;;;;;5029034;28;20797;-86
2021/03/19 07:08:43;;;;;;;1.30;0.90;;;21.70;49.90;;;;;;5027499;28;20438;-85
2021/03/19 07:11:40;;;;;;;1.70;0.90;;;21.70;49.80;;;;;;5028950;28;20423;-86
2021/03/19 07:14:39;;;;;;;1.00;0.80;;;21.80;50.00;;;;;;5031524;28;20399;-86
2021/03/19 07:17:37;;;;;;;1.67;1.00;;;21.80;49.90;;;;;;5029559;28;20453;-86
2021/03/19 07:20:29;;;;;;;2.13;0.80;;;21.70;49.80;;;;;;5029365;28;20415;-86
2021/03/19 07:23:04;;;;;;;1.47;0.97;;;21.80;49.90;;;;;;5028669;28;20541;-86
2021/03/19 07:25:46;;;;;;;1.20;1.00;;;21.80;49.90;;;;;;5027350;28;20545;-86
2021/03/19 07:28:36;;;;;;;2.20;1.30;;;21.90;51.10;;;;;;5028898;28;20826;-86
2021/03/19 07:31:39;;;;;;;1.03;0.90;;;21.90;50.70;;;;;;5026905;28;20466;-86
2021/03/19 07:34:21;;;;;;;1.30;1.00;;;21.80;49.80;;;;;;5027754;28;20418;-87
2021/03/19 07:37:04;;;;;;;1.33;1.00;;;21.90;49.90;;;;;;5026163;28;20426;-87
2021/03/19 07:40:01;;;;;;;1.30;0.90;;;21.80;49.80;;;;;;5026696;28;20396;-87
2021/03/19 07:42:27;;;;;;;1.73;0.97;;;21.90;50.30;;;;;;5024998;28;20480;-87
2021/03/19 07:45:30;;;;;;;1.20;1.00;;;21.90;50.60;;;;;;5026947;28;20415;-88
2021/03/19 07:48:03;;;;;;;1.70;1.00;;;21.90;49.80;;;;;;5026580;28;20545;-87
2021/03/19 07:50:50;;;;;;;1.50;1.00;;;21.60;49.50;;;;;;5025195;28;20415;-87
2021/03/19 07:53:24;;;;;;;1.10;1.00;;;21.90;49.70;;;;;;5025558;28;20407;-88
2021/03/19 07:56:29;;;;;;;1.20;0.80;;;22.00;50.80;;;;;;5025263;28;20420;-88
2021/03/19 07:59:12;;;;;;;1.30;1.00;;;22.00;49.70;;;;;;5025936;28;20474;-87
2021/03/19 08:02:05;;;;;;;2.10;1.10;;;22.00;50.20;;;;;;5025281;28;20991;-87
2021/03/19 08:05:04;;;;;;;1.43;1.03;;;22.00;49.80;;;;;;5026593;28;20396;-86
2021/03/19 08:07:53;;;;;;;1.23;0.93;;;22.00;49.80;;;;;;5026622;28;20403;-87
2021/03/19 08:10:41;;;;;;;1.40;1.00;;;22.00;49.80;;;;;;5024781;28;20404;-86
2021/03/19 08:13:39;;;;;;;1.27;1.17;;;22.00;51.00;;;;;;5026791;28;20408;-86
2021/03/19 08:16:12;;;;;;;1.20;0.90;;;22.00;49.80;;;;;;5025076;28;20423;-86
2021/03/19 08:18:51;;;;;;;1.30;0.80;;;22.00;49.80;;;;;;5025162;28;20505;-87
2021/03/19 08:21:20;;;;;;;3.20;1.00;;;22.00;49.80;;;;;;5026101;28;20505;-87
2021/03/19 08:24:11;;;;;;;1.30;0.80;;;21.90;49.70;;;;;;5026319;28;20412;-88
2021/03/19 08:27:05;;;;;;;1.10;0.80;;;22.00;50.30;;;;;;5026453;28;20404;-86
2021/03/19 08:30:02;;;;;;;;;;;;;;;;;;;;;
2021/03/19 08:32:53;;;;;;;1.07;0.93;;;22.00;49.70;;;;;;5026138;28;20491;-87
2021/03/19 08:35:32;;;;;;;1.30;0.80;;;22.10;49.80;;;;;;5027216;28;20422;-88
2021/03/19 08:38:06;;;;;;;1.30;0.90;;;22.10;50.30;;;;;;5028222;28;20924;-87
2021/03/19 08:40:49;;;;;;;2.00;1.10;;;22.10;50.60;;;;;;5025525;28;20441;-87
2021/03/19 08:43:48;;;;;;;3.73;1.20;;;22.10;49.80;;;;;;5028309;28;20431;-87
2021/03/19 08:46:37;;;;;;;2.60;1.90;;;22.10;49.80;;;;;;5027489;28;20408;-87
2021/03/19 08:49:13;;;;;;;1.10;0.80;;;22.10;50.10;;;;;;5030771;28;20395;-86
2021/03/19 08:51:43;;;;;;;1.23;0.80;;;22.10;50.80;;;;;;5032621;28;20418;-86
2021/03/19 08:54:12;;;;;;;1.10;0.83;;;22.10;50.10;;;;;;5029042;28;20426;-86
2021/03/19 08:56:43;;;;;;;1.10;0.90;;;22.10;51.30;;;;;;5029056;28;20407;-86
2021/03/19 08:59:09;;;;;;;0.90;0.80;;;22.10;50.20;;;;;;5029246;28;20415;-86
2021/03/19 09:01:47;;;;;;;1.53;0.90;;;22.10;50.50;;;;;;5026467;28;20531;-86
2021/03/19 09:04:14;;;;;;;1.10;0.93;;;22.10;49.90;;;;;;5017040;28;20453;-86
2021/03/19 09:07:18;;;;;;;1.40;0.90;;;22.10;50.50;;;;;;5029908;28;20415;-86
2021/03/19 09:09:44;;;;;;;2.00;1.23;;;22.10;50.00;;;;;;5028681;28;20422;-86
2021/03/19 09:12:11;;;;;;;1.10;1.00;;;22.10;50.70;;;;;;5029127;28;20439;-85
2021/03/19 09:14:44;;;;;;;1.20;0.97;;;22.10;49.90;;;;;;5030749;28;20407;-86
2021/03/19 09:17:44;;;;;;;1.30;1.20;;;22.10;50.30;;;;;;5030145;28;20846;-86
2021/03/19 09:20:23;;;;;;;1.10;0.83;;;22.10;49.70;;;;;;5028955;28;20450;-85
2021/03/19 09:23:09;;;;;;;1.10;0.90;;;22.10;50.30;;;;;;5029044;28;21034;-86
2021/03/19 09:26:04;;;;;;;1.10;0.80;;;22.10;49.80;;;;;;5028068;28;20423;-86
2021/03/19 09:29:15;;;;;;;1.07;0.77;;;22.10;49.80;;;;;;5028553;28;20459;-85
2021/03/19 09:31:54;;;;;;;1.10;0.87;;;22.10;49.70;;;;;;5030563;28;20421;-86
2021/03/19 09:34:45;;;;;;;1.17;0.90;;;22.10;49.80;;;;;;5029129;28;20415;-86
2021/03/19 09:37:29;;;;;;;1.83;1.00;;;22.10;49.80;;;;;;5028404;28;20431;-86
2021/03/19 09:40:09;;;;;;;1.30;0.90;;;22.10;49.80;;;;;;5027653;28;20494;-85
2021/03/19 09:42:39;;;;;;;1.93;0.90;;;22.10;49.80;;;;;;5027561;28;20466;-86
2021/03/19 09:45:11;;;;;;;1.00;0.87;;;22.10;50.80;;;;;;5027791;28;20446;-86
2021/03/19 09:47:49;;;;;;;1.67;0.80;;;22.20;51.10;;;;;;5029094;28;20929;-86
2021/03/19 09:50:29;;;;;;;1.27;0.97;;;22.10;49.80;;;;;;5028371;28;20394;-86
2021/03/19 09:53:01;;;;;;;1.10;0.80;;;22.20;49.80;;;;;;5029517;28;20412;-86
2021/03/19 09:55:43;;;;;;;1.30;1.00;;;22.10;49.80;;;;;;5027449;28;20415;-86
2021/03/19 09:58:38;;;;;;;1.30;0.90;;;21.90;49.60;;;;;;5028925;28;20439;-86
2021/03/19 10:01:31;;;;;;;1.30;0.90;;;22.20;49.90;;;;;;5029873;28;20415;-86
2021/03/19 10:04:01;;;;;;;1.17;0.87;;;22.10;49.80;;;;;;5028345;28;20407;-86
2021/03/19 10:06:32;;;;;;;1.00;0.80;;;22.10;50.40;;;;;;5030303;28;20404;-86
2021/03/19 10:09:18;;;;;;;1.10;0.90;;;22.10;50.10;;;;;;5031272;28;20398;-86
2021/03/19 10:12:13;;;;;;;1.97;0.90;;;22.20;49.90;;;;;;5029797;28;20956;-86
2021/03/19 10:14:41;;;;;;;1.17;0.90;;;22.10;49.80;;;;;;5031943;28;20430;-85
2021/03/19 10:17:16;;;;;;;1.40;1.00;;;22.10;49.90;;;;;;5012823;28;20450;-86
2021/03/19 10:19:44;;;;;;;1.00;0.83;;;22.10;49.80;;;;;;5027990;28;20403;-85
2021/03/19 10:22:25;;;;;;;2.40;0.90;;;22.00;50.20;;;;;;5028896;28;20570;-85
2021/03/19 10:24:52;;;;;;;1.30;0.97;;;22.20;50.00;;;;;;5032396;28;20423;-85
2021/03/19 10:27:21;;;;;;;0.90;0.70;;;22.20;49.90;;;;;;5033233;28;20399;-85
2021/03/19 10:29:50;;;;;;;1.27;1.03;;;22.20;50.70;;;;;;5032308;28;20493;-85
2021/03/19 10:32:23;;;;;;;2.13;0.80;;;22.20;50.10;;;;;;5031516;28;20479;-86
2021/03/19 10:35:05;;;;;;;1.20;0.90;;;22.20;50.20;;;;;;5032632;28;20411;-85
2021/03/19 10:37:51;;;;;;;1.60;0.93;;;22.20;49.90;;;;;;5032963;28;20407;-85
2021/03/19 10:40:37;;;;;;;1.30;0.90;;;22.20;50.40;;;;;;5031692;28;20431;-86
2021/03/19 10:43:19;;;;;;;1.07;0.90;;;21.60;49.40;;;;;;5031515;28;20467;-86
2021/03/19 10:45:53;;;;;;;1.30;0.80;;;22.20;50.90;;;;;;5031084;28;20415;-86
2021/03/19 10:48:21;;;;;;;1.10;0.80;;;22.20;49.90;;;;;;5031106;28;20454;-86
2021/03/19 10:51:03;;;;;;;1.20;0.90;;;22.20;49.90;;;;;;5030759;28;20411;-86
2021/03/19 10:53:40;;;;;;;1.07;0.80;;;22.20;49.80;;;;;;5033498;28;20395;-86
2021/03/19 10:56:10;;;;;;;1.43;1.03;;;22.20;51.20;;;;;;5032023;28;20433;-86
2021/03/19 10:58:41;;;;;;;1.20;0.87;;;22.20;49.80;;;;;;5031584;28;20412;-86
2021/03/19 11:01:27;;;;;;;1.47;0.90;;;22.20;49.80;;;;;;5032104;28;20455;-85
2021/03/19 11:03:54;;;;;;;1.03;0.80;;;22.20;51.50;;;;;;5031476;28;20407;-86
2021/03/19 11:06:38;;;;;;;1.27;0.87;;;22.20;50.20;;;;;;5031489;28;20407;-86
2021/03/19 11:09:17;;;;;;;1.20;0.90;;;22.20;49.80;;;;;;5031636;28;20403;-86
2021/03/19 11:11:49;;;;;;;1.50;0.93;;;22.20;50.30;;;;;;5033526;28;20437;-86
2021/03/19 11:14:18;;;;;;;1.80;0.90;;;22.20;50.50;;;;;;5030234;28;20453;-86
2021/03/19 11:16:53;;;;;;;1.40;0.93;;;22.20;50.40;;;;;;5032024;28;20423;-86
2021/03/19 11:19:27;;;;;;;1.73;0.90;;;21.90;50.00;;;;;;5031375;28;20401;-86
2021/03/19 11:22:03;;;;;;;1.60;1.00;;;22.20;50.10;;;;;;5032966;28;20489;-86
2021/03/19 11:24:35;;;;;;;1.03;0.93;;;22.20;49.80;;;;;;5034256;28;20407;-86
2021/03/19 11:27:20;;;;;;;1.30;0.80;;;22.90;51.40;;;;;;5033279;28;20419;-86
2021/03/19 11:29:47;;;;;;;1.10;0.80;;;22.20;50.10;;;;;;5032807;28;20426;-86
2021/03/19 11:32:33;;;;;;;1.30;0.70;;;22.20;50.10;;;;;;5032578;28;20431;-86
2021/03/19 11:35:16;;;;;;;1.30;1.00;;;22.20;50.20;;;;;;5047893;28;20486;-86
2021/03/19 11:37:46;;;;;;;1.20;0.93;;;22.20;50.30;;;;;;5035495;28;20445;-87
2021/03/19 11:40:24;;;;;;;5.23;1.00;;;22.20;50.30;;;;;;5033543;28;20410;-84
2021/03/19 11:42:52;;;;;;;1.43;0.93;;;22.10;50.40;;;;;;5034188;28;20457;-85
2021/03/19 11:45:25;;;;;;;1.80;1.00;;;22.10;49.30;;;;;;5049816;28;20418;-85
2021/03/19 11:47:57;;;;;;;1.73;0.90;;;22.20;49.80;;;;;;5050269;28;20414;-85
2021/03/19 11:50:23;;;;;;;1.77;1.37;;;22.20;49.80;;;;;;5050602;28;20457;-86
2021/03/19 11:52:52;;;;;;;1.40;1.07;;;22.20;51.10;;;;;;5050833;28;20546;-86
2021/03/19 11:55:25;;;;;;;2.43;1.60;;;22.10;50.50;;;;;;5049918;28;20426;-86
2021/03/19 11:57:51;;;;;;;5.23;4.03;;;22.20;50.30;;;;;;5034771;28;20518;-86
2021/03/19 12:00:22;;;;;;;8.27;6.33;;;22.10;50.70;;;;;;5050013;28;20410;-86
2021/03/19 12:02:50;;;;;;;14.30;10.43;;;22.10;50.00;;;;;;5050505;28;20521;-86
2021/03/19 12:05:22;;;;;;;15.47;11.70;;;22.10;52.00;;;;;;5049812;28;20406;-86
2021/03/19 12:07:48;;;;;;;24.17;14.07;;;22.10;50.00;;;;;;5034930;28;20414;-86
2021/03/19 12:10:15;;;;;;;20.27;13.70;;;22.10;50.40;;;;;;5033529;28;20469;-86
2021/03/19 12:12:41;;;;;;;23.20;16.37;;;22.10;50.20;;;;;;5031094;28;20411;-86
2021/03/19 12:15:09;;;;;;;23.30;17.00;;;21.20;50.40;;;;;;5027568;28;20598;-86
2021/03/19 12:17:35;;;;;;;23.93;17.37;;;22.20;50.40;;;;;;5030776;28;20517;-85
2021/03/19 12:20:03;;;;;;;27.23;18.00;;;21.90;50.10;;;;;;5032226;28;20415;-85
2021/03/19 12:22:28;;;;;;;25.70;17.70;;;21.90;49.80;;;;;;5032143;28;20458;-85
2021/03/19 12:24:57;;;;;;;30.23;19.40;;;22.10;51.20;;;;;;5029253;28;20412;-89
2021/03/19 12:27:24;;;;;;;34.37;19.97;;;22.10;50.60;;;;;;5029878;28;20191;-88
2021/03/19 12:29:51;;;;;;;25.47;18.57;;;22.10;51.00;;;;;;5030310;28;20411;-84
2021/03/19 12:32:21;;;;;;;28.60;19.80;;;22.10;49.80;;;;;;5031478;28;20408;-84
2021/03/19 12:34:47;;;;;;;31.40;20.40;;;22.20;49.80;;;;;;5029472;28;20423;-85
2021/03/19 12:37:14;;;;;;;26.77;19.60;;;22.10;50.60;;;;;;5030388;28;20399;-84
2021/03/19 12:39:39;;;;;;;29.33;22.50;;;22.10;50.20;;;;;;5029239;28;20434;-85
2021/03/19 12:42:07;;;;;;;25.73;20.20;;;22.10;50.90;;;;;;5030565;28;20463;-84
2021/03/19 12:44:39;;;;;;;27.47;20.40;;;22.10;50.00;;;;;;5012694;28;20430;-84
2021/03/19 12:47:05;;;;;;;32.83;21.73;;;22.10;50.90;;;;;;5028313;28;20416;-85
2021/03/19 12:49:30;;;;;;;27.17;21.47;;;22.10;50.40;;;;;;5028112;28;20418;-85
2021/03/19 12:51:56;;;;;;;32.03;21.43;;;22.10;50.80;;;;;;5028134;28;20411;-84
2021/03/19 12:54:23;;;;;;;32.53;21.23;;;22.10;51.30;;;;;;5028230;28;20188;-84
2021/03/19 12:56:49;;;;;;;26.97;21.47;;;22.10;50.80;;;;;;5029005;28;20778;-84
2021/03/19 12:59:15;;;;;;;31.50;21.23;;;22.10;50.90;;;;;;5011310;28;20415;-84
2021/03/19 13:01:43;;;;;;;25.20;19.27;;;22.10;52.10;;;;;;5027942;28;20462;-84
2021/03/19 13:04:09;;;;;;;30.90;20.53;;;22.10;50.70;;;;;;5029196;28;20243;-84
2021/03/19 13:06:37;;;;;;;29.00;20.80;;;22.10;51.10;;;;;;5028417;28;20411;-84
2021/03/19 13:09:03;;;;;;;28.83;20.07;;;22.10;50.80;;;;;;5027952;28;20182;-84
2021/03/19 13:11:29;;;;;;;27.60;20.37;;;22.10;51.10;;;;;;5027909;28;20419;-84
2021/03/19 13:13:55;;;;;;;27.30;21.03;;;21.50;50.20;;;;;;5027979;28;20867;-84
2021/03/19 13:16:22;;;;;;;31.23;22.10;;;22.10;50.20;;;;;;5027366;28;20423;-84
2021/03/19 13:18:50;;;;;;;31.73;21.87;;;22.00;50.80;;;;;;5028316;28;20427;-85
2021/03/19 13:21:16;;;;;;;32.07;22.43;;;22.10;51.10;;;;;;5030136;28;20459;-84
2021/03/19 13:23:41;;;;;;;28.97;20.50;;;22.00;51.10;;;;;;5032436;28;20497;-84
2021/03/19 13:26:09;;;;;;;25.80;19.37;;;22.00;51.30;;;;;;5030630;28;20223;-84
2021/03/19 13:28:36;;;;;;;28.50;21.10;;;22.00;50.60;;;;;;5029478;28;20176;-84
2021/03/19 13:31:02;;;;;;;30.80;20.30;;;22.00;51.30;;;;;;5030179;28;20431;-84
2021/03/19 13:33:29;;;;;;;30.10;20.10;;;22.00;50.40;;;;;;5027834;28;20510;-84
2021/03/19 13:35:57;;;;;;;24.40;18.63;;;22.40;50.80;;;;;;5029261;28;20423;-84
2021/03/19 13:38:26;;;;;;;27.10;20.33;;;22.20;50.30;;;;;;5014048;28;20423;-85
2021/03/19 13:40:54;;;;;;;27.53;19.57;;;22.00;50.20;;;;;;5026823;28;20459;-84
2021/03/19 13:43:23;;;;;;;29.40;19.13;;;22.00;50.50;;;;;;5029090;28;20396;-84
2021/03/19 13:45:50;;;;;;;29.20;18.97;;;21.70;50.30;;;;;;5027272;28;20512;-84
2021/03/19 13:48:16;;;;;;;26.93;19.17;;;22.00;51.20;;;;;;5027352;28;20407;-84
2021/03/19 13:50:42;;;;;;;26.50;19.23;;;21.60;51.50;;;;;;5026742;28;20421;-84
2021/03/19 13:53:08;;;;;;;27.83;20.27;;;22.00;51.90;;;;;;5026900;28;20189;-84
2021/03/19 13:55:34;;;;;;;33.03;18.70;;;;;;;;;;5027298;28;20239;-85
2021/03/19 13:58:00;;;;;;;28.67;19.80;;;22.00;49.60;;;;;;5027515;28;20411;-84
2021/03/19 14:00:30;;;;;;;26.27;19.97;;;22.10;50.80;;;;;;5027101;28;20426;-85